Time;durP1;ratioP1;P1;durP2;ratioP2;P2;SDS_P1;SDS_P2;PMS_P1;PMS_P2;Temp;Humidity;BMP_temperature;BMP_pressure;BME280_temperature;BME280_humidity;BME280_pressure;Samples;Min_cycle;Max_cycle;Signal;HPM_P1;HPM_P2
2022/11/24 00:01:26;;;;;;;3.60;1.83;;;8.20;93.70;;;;;;5138097;27;20201;-43
2022/11/24 00:03:57;;;;;;;6.77;2.30;;;8.20;93.80;;;;;;5139021;27;20821;-44
2022/11/24 00:06:24;;;;;;;6.23;2.20;;;8.20;93.90;;;;;;5139840;27;20425;-44
2022/11/24 00:08:50;;;;;;;7.03;2.60;;;8.20;94.00;;;;;;5140427;27;21463;-41
2022/11/24 00:11:21;;;;;;;8.63;2.37;;;8.20;94.20;;;;;;5140219;27;20420;-41
2022/11/24 00:13:47;;;;;;;6.27;2.30;;;8.20;94.20;;;;;;5121935;27;20413;-42
2022/11/24 00:16:15;;;;;;;10.73;2.60;;;8.20;94.20;;;;;;5139148;27;20550;-41
2022/11/24 00:18:42;;;;;;;6.50;2.07;;;8.10;94.20;;;;;;5138451;27;20287;-42
2022/11/24 00:21:09;;;;;;;6.00;2.60;;;8.20;94.40;;;;;;5137820;27;20472;-42
2022/11/24 00:23:35;;;;;;;6.37;2.40;;;8.10;94.30;;;;;;5137851;27;20409;-42
2022/11/24 00:26:05;;;;;;;6.10;2.60;;;8.10;94.40;;;;;;5139097;27;20524;-41
2022/11/24 00:28:32;;;;;;;5.93;2.20;;;8.10;94.60;;;;;;5139273;27;20405;-41
2022/11/24 00:30:57;;;;;;;9.97;3.30;;;8.10;94.90;;;;;;5139069;27;20429;-42
2022/11/24 00:33:23;;;;;;;7.40;2.17;;;8.10;95.00;;;;;;5138128;27;20405;-41
2022/11/24 00:35:59;;;;;;;5.77;2.20;;;8.00;95.20;;;;;;5137951;27;20212;-41
2022/11/24 00:38:25;;;;;;;8.20;2.37;;;8.00;95.40;;;;;;5137617;27;20562;-41
2022/11/24 00:40:50;;;;;;;7.93;2.23;;;8.00;95.60;;;;;;5137670;27;20574;-41
2022/11/24 00:43:16;;;;;;;9.20;2.50;;;8.00;95.70;;;;;;5138407;27;20491;-43
2022/11/24 00:45:42;;;;;;;8.40;2.63;;;8.10;95.90;;;;;;5139076;27;20206;-42
2022/11/24 00:48:08;;;;;;;6.33;2.70;;;8.10;96.10;;;;;;5137734;27;20826;-42
2022/11/24 00:50:34;;;;;;;5.23;2.13;;;8.10;96.20;;;;;;5139390;27;20194;-42
2022/11/24 00:52:59;;;;;;;6.87;2.00;;;8.10;96.30;;;;;;5139635;27;20175;-42
2022/11/24 00:55:25;;;;;;;6.97;2.13;;;8.10;96.30;;;;;;5139532;27;20690;-42
2022/11/24 00:57:51;;;;;;;7.30;2.00;;;8.10;96.40;;;;;;5137925;27;20493;-42
2022/11/24 01:00:17;;;;;;;4.50;1.50;;;8.10;96.50;;;;;;5138188;27;20203;-42
2022/11/24 01:02:43;;;;;;;5.80;1.90;;;8.10;96.60;;;;;;5138187;27;20697;-44
2022/11/24 01:05:09;;;;;;;5.73;2.30;;;8.10;96.60;;;;;;5138884;27;20561;-42
2022/11/24 01:07:34;;;;;;;8.80;2.20;;;8.10;96.70;;;;;;5138484;27;20193;-44
2022/11/24 01:10:00;;;;;;;5.00;2.20;;;8.10;96.70;;;;;;5138598;27;20557;-41
2022/11/24 01:12:26;;;;;;;5.40;1.83;;;8.20;96.70;;;;;;5139103;27;20534;-41
2022/11/24 01:14:51;;;;;;;6.57;2.03;;;8.20;96.70;;;;;;5138700;27;20178;-42
2022/11/24 01:17:17;;;;;;;5.97;2.20;;;8.20;96.70;;;;;;5138881;27;20233;-42
2022/11/24 01:19:43;;;;;;;7.60;2.20;;;8.20;96.70;;;;;;5139155;27;20230;-42
2022/11/24 01:22:09;;;;;;;6.97;2.20;;;8.20;96.60;;;;;;5137356;27;20238;-41
2022/11/24 01:24:34;;;;;;;9.97;2.53;;;8.20;96.60;;;;;;5138276;27;20405;-46
2022/11/24 01:27:00;;;;;;;8.43;1.93;;;8.10;96.50;;;;;;5138858;27;20216;-43
2022/11/24 01:29:25;;;;;;;5.50;1.70;;;8.20;96.60;;;;;;5138228;27;20167;-42
2022/11/24 01:31:51;;;;;;;3.30;1.80;;;8.10;96.50;;;;;;5139099;27;20179;-44
2022/11/24 01:34:16;;;;;;;8.97;2.10;;;8.10;96.50;;;;;;5138274;27;20246;-41
2022/11/24 01:36:42;;;;;;;5.03;1.70;;;8.10;96.50;;;;;;5138494;27;20190;-41
2022/11/24 01:39:08;;;;;;;4.33;2.00;;;8.10;96.50;;;;;;5137876;27;20214;-42
2022/11/24 01:41:34;;;;;;;8.70;1.77;;;8.10;96.50;;;;;;5119246;28;20555;-45
2022/11/24 01:44:00;;;;;;;4.87;2.00;;;8.10;96.50;;;;;;5138592;27;20194;-43
2022/11/24 01:46:28;;;;;;;7.10;2.40;;;8.10;96.60;;;;;;5138515;28;20873;-44
2022/11/24 01:49:01;;;;;;;3.57;1.37;;;8.10;96.60;;;;;;5138582;28;20173;-41
2022/11/24 01:51:28;;;;;;;3.30;1.53;;;8.10;96.60;;;;;;5138814;28;20430;-43
2022/11/24 01:54:10;;;;;;;4.60;1.37;;;8.10;96.60;;;;;;5120345;28;20500;-41
2022/11/24 01:56:39;;;;;;;6.20;2.10;;;8.10;96.50;;;;;;5122000;27;20865;-41
2022/11/24 01:59:06;;;;;;;5.93;1.73;;;8.10;96.60;;;;;;5124598;27;20829;-43
2022/11/24 02:01:32;;;;;;;6.13;2.00;;;8.10;96.60;;;;;;5124329;27;20567;-42
2022/11/24 02:03:59;;;;;;;6.33;2.10;;;8.10;96.70;;;;;;5124126;27;20421;-45
2022/11/24 02:06:27;;;;;;;5.90;1.50;;;8.10;96.70;;;;;;5142451;27;20176;-41
2022/11/24 02:09:22;;;;;;;4.83;2.00;;;8.20;96.80;;;;;;5142335;27;20827;-42
2022/11/24 02:11:48;;;;;;;4.00;1.67;;;8.20;96.80;;;;;;5141802;27;20436;-42
2022/11/24 02:14:15;;;;;;;6.47;1.57;;;8.20;96.80;;;;;;5142581;27;20479;-43
2022/11/24 02:16:43;;;;;;;2.93;1.30;;;8.20;96.70;;;;;;5123821;27;20203;-44
2022/11/24 02:19:33;;;;;;;4.43;2.23;;;8.20;96.70;;;;;;5124672;27;20443;-41
2022/11/24 02:21:59;;;;;;;3.17;1.40;;;8.10;96.60;;;;;;5140467;27;20461;-44
2022/11/24 02:24:37;;;;;;;5.27;1.60;;;8.10;96.60;;;;;;5123570;27;20441;-43
2022/11/24 02:27:03;;;;;;;8.13;1.77;;;8.10;96.50;;;;;;5141592;27;20651;-43
2022/11/24 02:29:28;;;;;;;5.27;1.77;;;8.10;96.50;;;;;;5142606;27;20402;-41
2022/11/24 02:32:02;;;;;;;5.17;1.40;;;8.10;96.50;;;;;;5142712;27;20426;-42
2022/11/24 02:34:28;;;;;;;3.43;1.60;;;8.10;96.40;;;;;;5123140;27;20179;-43
2022/11/24 02:36:53;;;;;;;6.70;2.20;;;8.10;96.30;;;;;;5141836;27;20441;-42
2022/11/24 02:39:19;;;;;;;5.27;1.67;;;8.10;96.20;;;;;;5141617;27;20430;-42
2022/11/24 02:41:52;;;;;;;5.20;1.40;;;8.10;96.20;;;;;;5140815;27;20207;-42
2022/11/24 02:44:19;;;;;;;7.30;1.60;;;8.00;96.10;;;;;;5122793;27;20169;-46
2022/11/24 02:46:45;;;;;;;6.17;2.23;;;8.00;96.00;;;;;;5123227;27;20435;-41
2022/11/24 02:49:10;;;;;;;7.37;1.80;;;8.00;95.90;;;;;;5141431;27;20421;-41
2022/11/24 02:51:36;;;;;;;6.43;1.63;;;8.00;95.80;;;;;;5141784;27;20196;-44
2022/11/24 02:54:01;;;;;;;5.00;1.90;;;7.90;95.70;;;;;;5140268;27;20583;-42
2022/11/24 02:56:27;;;;;;;5.07;1.63;;;7.90;95.70;;;;;;5140741;27;20211;-42
2022/11/24 02:58:52;;;;;;;2.77;1.30;;;7.90;95.70;;;;;;5140928;27;20435;-42
2022/11/24 03:01:18;;;;;;;5.50;1.50;;;7.90;95.70;;;;;;5140582;27;20213;-44
2022/11/24 03:03:44;;;;;;;2.63;1.30;;;7.80;95.60;;;;;;5140068;27;20573;-42
2022/11/24 03:06:09;;;;;;;4.07;1.70;;;7.80;95.60;;;;;;5123495;27;20177;-42
2022/11/24 03:08:35;;;;;;;3.23;1.43;;;7.80;95.50;;;;;;5140265;27;20253;-44
2022/11/24 03:11:01;;;;;;;4.00;1.60;;;7.80;95.60;;;;;;5141864;27;20186;-42
2022/11/24 03:13:27;;;;;;;4.20;1.30;;;7.80;95.70;;;;;;5141201;27;20471;-43
2022/11/24 03:15:52;;;;;;;4.47;1.67;;;7.80;95.70;;;;;;5141048;27;20425;-44
2022/11/24 03:18:18;;;;;;;2.90;1.23;;;7.80;95.80;;;;;;5141029;27;20220;-42
2022/11/24 03:20:43;;;;;;;5.23;2.13;;;7.80;95.80;;;;;;5140887;27;20225;-43
2022/11/24 03:23:09;;;;;;;6.20;1.60;;;7.80;96.10;;;;;;5137840;27;20240;-44
2022/11/24 03:25:35;;;;;;;3.87;1.80;;;7.80;96.20;;;;;;5138931;27;20426;-42
2022/11/24 03:28:00;;;;;;;4.43;1.50;;;7.80;96.40;;;;;;5138816;27;20172;-41
2022/11/24 03:30:26;;;;;;;4.70;2.00;;;7.80;96.50;;;;;;5139158;27;20218;-42
2022/11/24 03:32:55;;;;;;;5.20;1.53;;;7.80;96.60;;;;;;5140311;27;20175;-44
2022/11/24 03:35:21;;;;;;;4.50;1.70;;;7.70;96.60;;;;;;5139072;27;20203;-42
2022/11/24 03:37:47;;;;;;;5.57;1.87;;;7.70;96.70;;;;;;5139955;27;20482;-42
2022/11/24 03:40:13;;;;;;;3.10;1.77;;;7.70;96.70;;;;;;5140997;27;20515;-42
2022/11/24 03:42:39;;;;;;;7.20;1.80;;;7.70;96.70;;;;;;5139725;27;20693;-41
2022/11/24 03:45:05;;;;;;;3.90;1.80;;;7.70;96.70;;;;;;5139637;27;20557;-43
2022/11/24 03:47:31;;;;;;;4.23;1.63;;;7.70;96.80;;;;;;5140333;27;20920;-41
2022/11/24 03:49:56;;;;;;;4.83;1.60;;;7.70;96.90;;;;;;5140174;27;20402;-41
2022/11/24 03:52:25;;;;;;;4.37;1.80;;;7.70;97.00;;;;;;5140456;27;20180;-43
2022/11/24 03:54:51;;;;;;;3.03;1.83;;;7.70;97.10;;;;;;5139804;27;20232;-42
2022/11/24 03:57:16;;;;;;;4.33;2.00;;;7.70;97.10;;;;;;5140608;27;20417;-40
2022/11/24 03:59:42;;;;;;;4.20;1.87;;;7.70;97.20;;;;;;5139809;27;20413;-41
2022/11/24 04:02:07;;;;;;;3.93;1.73;;;7.70;97.20;;;;;;5138543;27;20303;-41
2022/11/24 04:04:33;;;;;;;6.33;1.80;;;7.70;97.30;;;;;;5139318;27;20169;-45
2022/11/24 04:06:59;;;;;;;4.70;1.90;;;7.70;97.60;;;;;;5140591;27;20186;-43
2022/11/24 04:09:24;;;;;;;7.20;2.20;;;7.70;97.30;;;;;;5139151;27;20174;-43
2022/11/24 04:14:34;;;;;;;5.73;1.93;;;7.70;97.40;;;;;;5139634;27;20457;-41
2022/11/24 04:16:59;;;;;;;3.77;2.10;;;7.70;97.40;;;;;;5139800;27;20421;-42
2022/11/24 04:19:25;;;;;;;4.63;1.80;;;7.70;97.50;;;;;;5139190;27;20175;-43
2022/11/24 04:21:50;;;;;;;5.00;2.03;;;7.70;97.50;;;;;;5139003;27;20242;-41
2022/11/24 04:24:16;;;;;;;5.73;2.37;;;7.70;97.50;;;;;;5138217;27;20167;-44
2022/11/24 04:26:41;;;;;;;6.93;2.43;;;7.70;97.60;;;;;;5138859;27;20247;-42
2022/11/24 04:29:08;;;;;;;4.50;2.10;;;7.70;97.60;;;;;;5138298;27;20195;-42
2022/11/24 04:31:34;;;;;;;4.77;2.20;;;7.80;97.60;;;;;;5139435;27;20276;-42
2022/11/24 04:34:00;;;;;;;9.83;3.47;;;7.80;97.60;;;;;;5138776;27;20509;-42
2022/11/24 04:36:25;;;;;;;11.20;3.07;;;7.80;97.60;;;;;;5139341;27;20184;-42
2022/11/24 04:38:52;;;;;;;5.10;1.90;;;7.80;97.60;;;;;;5139221;27;20168;-43
2022/11/24 04:41:18;;;;;;;4.23;1.93;;;7.80;97.50;;;;;;5138543;27;20200;-42
2022/11/24 04:43:44;;;;;;;3.87;1.77;;;7.80;97.50;;;;;;5136242;27;20469;-44
2022/11/24 04:46:10;;;;;;;5.33;2.03;;;7.80;97.40;;;;;;5137761;27;20171;-44
2022/11/24 04:48:36;;;;;;;5.67;2.40;;;7.90;97.40;;;;;;5138157;27;20164;-43
2022/11/24 04:51:05;;;;;;;6.07;2.20;;;7.80;97.30;;;;;;5137686;27;20468;-43
2022/11/24 04:53:30;;;;;;;5.67;2.13;;;7.80;97.20;;;;;;5136305;27;20190;-42
2022/11/24 04:55:56;;;;;;;10.20;2.40;;;7.80;97.10;;;;;;5135828;27;20429;-42
2022/11/24 04:58:21;;;;;;;5.87;1.80;;;7.80;97.10;;;;;;5137700;27;20501;-41
2022/11/24 05:00:47;;;;;;;7.20;2.37;;;7.80;97.10;;;;;;5136441;27;20207;-43
2022/11/24 05:03:13;;;;;;;8.97;2.47;;;7.80;97.00;;;;;;5134458;27;20450;-44
2022/11/24 05:05:38;;;;;;;8.10;3.03;;;7.80;97.00;;;;;;5136454;27;20258;-42
2022/11/24 05:08:04;;;;;;;5.17;2.30;;;7.80;97.00;;;;;;5137669;27;20177;-41
2022/11/24 05:10:36;;;;;;;6.13;2.77;;;7.70;96.80;;;;;;5137981;27;20184;-44
2022/11/24 05:13:04;;;;;;;8.63;2.60;;;7.70;96.80;;;;;;5137890;27;20167;-45
2022/11/24 05:15:30;;;;;;;5.20;2.30;;;7.70;96.80;;;;;;5137851;27;20845;-43
2022/11/24 05:17:55;;;;;;;5.10;2.13;;;7.80;96.80;;;;;;5137584;27;20737;-42
2022/11/24 05:20:21;;;;;;;5.13;1.80;;;7.70;96.70;;;;;;5135455;27;20294;-44
2022/11/24 05:22:47;;;;;;;7.10;2.63;;;7.70;96.60;;;;;;5136440;27;20257;-41
2022/11/24 05:25:13;;;;;;;8.03;2.13;;;7.70;96.60;;;;;;5136357;27;20517;-43
2022/11/24 05:27:39;;;;;;;5.50;2.07;;;7.70;96.60;;;;;;5135851;27;20171;-44
2022/11/24 05:30:05;;;;;;;5.40;1.93;;;7.70;96.60;;;;;;5132272;27;20338;-45
2022/11/24 05:32:31;;;;;;;8.87;2.10;;;7.60;96.50;;;;;;5131737;27;20500;-44
2022/11/24 05:34:57;;;;;;;3.77;2.30;;;7.60;96.60;;;;;;5134203;27;20487;-45
2022/11/24 05:37:24;;;;;;;6.03;2.43;;;7.70;96.60;;;;;;5116933;27;20222;-44
2022/11/24 05:39:50;;;;;;;6.67;2.30;;;7.60;96.70;;;;;;5136547;27;20180;-43
2022/11/24 05:44:59;;;;;;;6.80;1.97;;;7.60;96.70;;;;;;5133859;27;20170;-43
2022/11/24 05:47:25;;;;;;;9.20;2.50;;;7.60;96.70;;;;;;5133818;28;20409;-43
2022/11/24 05:49:51;;;;;;;10.60;2.10;;;7.50;96.80;;;;;;5136681;28;20213;-44
2022/11/24 05:52:16;;;;;;;8.60;2.20;;;7.50;96.80;;;;;;5133589;28;20258;-42
2022/11/24 05:54:42;;;;;;;8.07;2.77;;;7.50;96.90;;;;;;5134055;28;20183;-44
2022/11/24 05:57:07;;;;;;;3.73;1.50;;;7.50;96.90;;;;;;5131573;28;20210;-43
2022/11/24 05:59:33;;;;;;;5.43;1.63;;;7.50;96.90;;;;;;5130474;28;20189;-43
2022/11/24 06:01:59;;;;;;;5.20;2.03;;;7.60;97.00;;;;;;5131754;28;20207;-44
2022/11/24 06:04:25;;;;;;;9.60;2.53;;;7.60;97.00;;;;;;5130061;28;20160;-43
2022/11/24 06:06:50;;;;;;;9.90;2.93;;;7.60;97.10;;;;;;5131032;28;20421;-42
2022/11/24 06:09:17;;;;;;;6.53;2.03;;;7.60;97.10;;;;;;5131805;28;20225;-43
2022/11/24 06:11:43;;;;;;;10.27;2.70;;;7.60;97.10;;;;;;5133685;28;20196;-43
2022/11/24 06:14:09;;;;;;;5.93;2.10;;;7.50;97.10;;;;;;5114224;28;20682;-43
2022/11/24 06:16:35;;;;;;;12.63;3.87;;;7.50;97.20;;;;;;5132545;28;20209;-43
2022/11/24 06:19:01;;;;;;;7.30;3.30;;;7.50;97.30;;;;;;5132150;28;20465;-45
2022/11/24 06:21:27;;;;;;;9.60;2.47;;;7.50;97.40;;;;;;5111299;28;20481;-44
2022/11/24 06:23:52;;;;;;;7.43;2.53;;;7.40;97.50;;;;;;5092294;28;20226;-45
2022/11/24 06:26:18;;;;;;;8.70;2.60;;;7.40;97.60;;;;;;5090004;28;20438;-45
2022/11/24 06:28:44;;;;;;;8.90;3.30;;;7.40;97.70;;;;;;5087085;28;20788;-44
2022/11/24 06:31:09;;;;;;;7.80;2.90;;;7.40;97.80;;;;;;5086225;28;20197;-44
2022/11/24 06:33:37;;;;;;;7.30;2.60;;;7.40;97.80;;;;;;5111593;28;20184;-44
2022/11/24 06:36:08;;;;;;;10.50;2.57;;;7.40;97.90;;;;;;5113841;28;20184;-44
2022/11/24 06:38:34;;;;;;;10.53;3.90;;;7.40;97.90;;;;;;5095880;28;20858;-43
2022/11/24 06:41:05;;;;;;;7.07;2.97;;;7.40;97.90;;;;;;5113409;28;20489;-43
2022/11/24 06:43:31;;;;;;;13.90;2.30;;;7.40;98.00;;;;;;5096506;28;20495;-44
2022/11/24 06:45:57;;;;;;;7.63;2.20;;;7.40;98.00;;;;;;5115122;28;20426;-45
2022/11/24 06:48:23;;;;;;;8.67;2.33;;;7.50;98.10;;;;;;5115521;28;20472;-46
2022/11/24 06:50:49;;;;;;;7.70;2.30;;;7.50;98.00;;;;;;5112388;28;20203;-44
2022/11/24 06:53:14;;;;;;;8.10;2.80;;;7.50;98.10;;;;;;5115544;28;20456;-42
2022/11/24 06:55:40;;;;;;;7.97;2.00;;;7.60;98.20;;;;;;5117079;28;20499;-42
2022/11/24 06:58:06;;;;;;;8.70;2.77;;;7.60;98.10;;;;;;5097614;28;20176;-44
2022/11/24 07:00:31;;;;;;;8.97;3.00;;;7.60;98.10;;;;;;5114413;28;20301;-42
2022/11/24 07:03:00;;;;;;;11.33;2.50;;;7.60;98.10;;;;;;5096228;28;20170;-42
2022/11/24 07:05:26;;;;;;;10.03;2.47;;;7.70;98.10;;;;;;5114426;28;20176;-43
2022/11/24 07:07:51;;;;;;;9.37;2.30;;;7.70;98.00;;;;;;5115842;28;20417;-45
2022/11/24 07:10:17;;;;;;;3.87;2.13;;;7.70;98.00;;;;;;5115070;28;20172;-43
2022/11/24 07:12:43;;;;;;;10.30;2.10;;;7.70;98.10;;;;;;5115536;28;20410;-43
2022/11/24 07:15:09;;;;;;;12.53;3.03;;;7.80;98.10;;;;;;5116822;28;20185;-41
2022/11/24 07:17:38;;;;;;;7.57;2.00;;;7.80;98.10;;;;;;5115673;28;20618;-42
2022/11/24 07:20:05;;;;;;;5.87;2.17;;;7.80;98.10;;;;;;5116301;28;20505;-42
2022/11/24 07:22:31;;;;;;;8.03;2.97;;;7.80;98.10;;;;;;5116724;28;20887;-42
2022/11/24 07:24:56;;;;;;;9.83;3.00;;;7.80;98.10;;;;;;5116838;28;20393;-45
2022/11/24 07:27:22;;;;;;;6.27;2.10;;;7.90;98.20;;;;;;5117123;28;20186;-42
2022/11/24 07:29:47;;;;;;;4.33;2.10;;;7.90;98.20;;;;;;5116605;28;20295;-41
2022/11/24 07:32:13;;;;;;;7.10;3.50;;;7.90;98.20;;;;;;5114923;28;20176;-43
2022/11/24 07:34:38;;;;;;;6.73;2.60;;;7.90;98.20;;;;;;5115918;28;20256;-43
2022/11/24 07:37:04;;;;;;;9.87;3.23;;;7.90;98.20;;;;;;5115917;28;20458;-43
2022/11/24 07:39:30;;;;;;;10.10;3.70;;;8.00;98.30;;;;;;5115308;28;20168;-45
2022/11/24 07:41:58;;;;;;;5.87;2.00;;;8.00;98.30;;;;;;5114493;28;20206;-42
2022/11/24 07:44:23;;;;;;;6.20;2.80;;;8.10;98.40;;;;;;5115621;28;20172;-43
2022/11/24 07:46:50;;;;;;;12.30;3.57;;;8.10;98.40;;;;;;5116019;28;20452;-43
2022/11/24 07:49:16;;;;;;;10.67;2.57;;;8.10;98.50;;;;;;5117465;28;20238;-42
2022/11/24 07:51:41;;;;;;;6.83;3.17;;;8.20;98.60;;;;;;5116994;28;20731;-43
2022/11/24 07:54:07;;;;;;;6.03;2.23;;;8.20;98.60;;;;;;5098186;28;20419;-43
2022/11/24 07:56:32;;;;;;;9.70;2.30;;;8.20;98.60;;;;;;5114060;28;20180;-42
2022/11/24 07:58:58;;;;;;;7.03;3.03;;;8.20;98.60;;;;;;5112474;28;20236;-42
2022/11/24 08:01:23;;;;;;;9.80;2.43;;;8.20;98.60;;;;;;5111451;28;20212;-44
2022/11/24 08:03:50;;;;;;;8.00;3.03;;;8.30;98.60;;;;;;5113949;28;20204;-44
2022/11/24 08:06:17;;;;;;;8.70;3.03;;;8.30;98.60;;;;;;5115561;28;20487;-41
2022/11/24 08:08:43;;;;;;;9.07;3.13;;;8.30;98.60;;;;;;5115192;28;20339;-42
2022/11/24 08:11:14;;;;;;;9.70;3.00;;;8.30;98.60;;;;;;5115375;28;20730;-42
2022/11/24 08:13:40;;;;;;;9.40;3.30;;;8.30;98.60;;;;;;5116418;28;20187;-45
2022/11/24 08:16:10;;;;;;;6.30;2.60;;;8.30;98.70;;;;;;5116875;28;20438;-41
2022/11/24 08:18:36;;;;;;;6.77;2.30;;;8.30;98.70;;;;;;5117223;28;20945;-42
2022/11/24 08:21:03;;;;;;;4.50;2.10;;;8.30;98.70;;;;;;5117495;28;20488;-44
2022/11/24 08:23:28;;;;;;;6.00;2.10;;;8.40;98.70;;;;;;5115595;28;20421;-42
2022/11/24 08:25:55;;;;;;;7.97;2.77;;;8.40;98.50;;;;;;5114419;28;20455;-46
2022/11/24 08:28:22;;;;;;;5.60;1.80;;;8.50;98.40;;;;;;5115714;28;20246;-43
2022/11/24 08:30:47;;;;;;;3.97;1.60;;;8.50;98.30;;;;;;5097414;28;20434;-42
2022/11/24 08:33:13;;;;;;;7.17;2.20;;;8.60;98.20;;;;;;5114358;28;20487;-43
2022/11/24 08:35:39;;;;;;;5.00;2.03;;;8.60;98.10;;;;;;5115673;28;20243;-42
2022/11/24 08:38:05;;;;;;;4.83;1.90;;;8.70;98.00;;;;;;5116162;28;20696;-43
2022/11/24 08:40:31;;;;;;;3.30;1.60;;;8.70;97.80;;;;;;5095983;28;20328;-44
2022/11/24 08:42:59;;;;;;;3.63;1.90;;;8.70;97.60;;;;;;5115325;28;20445;-44
2022/11/24 08:45:25;;;;;;;4.20;1.50;;;8.70;97.40;;;;;;5112645;28;20418;-43
2022/11/24 08:47:55;;;;;;;3.00;1.93;;;8.80;97.30;;;;;;5115031;28;20669;-42
2022/11/24 08:50:22;;;;;;;2.00;1.10;;;8.80;97.20;;;;;;5103827;28;20931;-42
2022/11/24 08:52:49;;;;;;;3.17;1.80;;;8.90;97.10;;;;;;5082480;28;20801;-44
2022/11/24 08:55:15;;;;;;;1.97;1.00;;;9.00;97.10;;;;;;5074805;28;20481;-42
2022/11/24 08:57:41;;;;;;;2.20;1.00;;;9.30;97.00;;;;;;5076248;28;20728;-43
2022/11/24 09:00:08;;;;;;;2.43;0.90;;;9.70;96.60;;;;;;5074147;28;20548;-44
2022/11/24 09:02:33;;;;;;;1.33;0.70;;;10.10;95.50;;;;;;5074419;28;20252;-41
2022/11/24 09:05:00;;;;;;;1.93;1.00;;;10.40;94.80;;;;;;5073154;28;20447;-42
2022/11/24 09:07:25;;;;;;;2.67;1.10;;;10.80;94.20;;;;;;5073266;28;20221;-43
2022/11/24 09:09:51;;;;;;;3.00;0.97;;;11.00;93.30;;;;;;5037019;28;20427;-42
2022/11/24 09:12:16;;;;;;;2.10;1.23;;;11.10;92.70;;;;;;5072518;28;20217;-45
2022/11/24 09:14:42;;;;;;;1.87;0.90;;;11.20;92.30;;;;;;5073418;28;20246;-43
2022/11/24 09:17:07;;;;;;;3.00;1.50;;;11.40;92.30;;;;;;5076495;28;20213;-43
2022/11/24 09:19:33;;;;;;;1.40;1.00;;;11.90;92.00;;;;;;5092047;28;20571;-43
2022/11/24 09:21:58;;;;;;;2.20;1.10;;;12.10;91.30;;;;;;5092913;28;20555;-45
2022/11/24 09:24:24;;;;;;;2.00;1.47;;;12.30;90.80;;;;;;5094066;28;20204;-43
2022/11/24 09:26:50;;;;;;;2.80;1.20;;;12.40;90.60;;;;;;5093570;28;20242;-43
2022/11/24 09:29:16;;;;;;;1.83;1.13;;;12.50;90.40;;;;;;5084816;28;20190;-43
2022/11/24 09:31:41;;;;;;;1.77;1.30;;;12.70;90.20;;;;;;5115944;28;20180;-47
2022/11/24 09:34:11;;;;;;;2.27;0.87;;;12.70;89.50;;;;;;5114070;28;20425;-44
2022/11/24 09:36:37;;;;;;;1.50;0.70;;;12.60;88.70;;;;;;5096636;28;20546;-42
2022/11/24 09:39:02;;;;;;;1.30;0.80;;;12.40;88.50;;;;;;5114485;28;20762;-42
2022/11/24 09:41:42;;;;;;;1.00;0.50;;;12.30;88.20;;;;;;5094315;28;20277;-44
2022/11/24 09:44:35;;;;;;;1.10;0.50;;;12.20;88.30;;;;;;5095193;28;20413;-45
2022/11/24 09:47:36;;;;;;;1.33;0.53;;;12.20;88.40;;;;;;5112868;28;20418;-43
2022/11/24 09:50:05;;;;;;;1.13;0.57;;;12.30;88.40;;;;;;5111874;28;20424;-43
2022/11/24 09:53:13;;;;;;;1.60;0.57;;;12.30;87.70;;;;;;5094269;28;20595;-43
2022/11/24 09:55:47;;;;;;;1.37;0.60;;;12.30;87.20;;;;;;5094538;28;20431;-42
2022/11/24 09:58:20;;;;;;;1.27;0.57;;;12.30;86.90;;;;;;5093275;28;20521;-45
2022/11/24 10:00:47;;;;;;;1.00;0.60;;;12.30;86.70;;;;;;5112028;28;20908;-43
2022/11/24 10:03:24;;;;;;;1.03;0.50;;;12.20;86.90;;;;;;5093078;28;20423;-43
2022/11/24 10:05:50;;;;;;;1.70;0.50;;;12.20;87.00;;;;;;5092196;28;20417;-43
2022/11/24 10:08:31;;;;;;;1.50;0.60;;;12.10;87.20;;;;;;5111061;28;20452;-42
2022/11/24 10:10:59;;;;;;;0.93;0.47;;;12.00;87.40;;;;;;5114150;28;20820;-45
2022/11/24 10:13:45;;;;;;;1.47;0.73;;;12.00;87.70;;;;;;5112947;28;20420;-44
2022/11/24 10:16:29;;;;;;;1.13;0.60;;;12.20;88.40;;;;;;5095985;28;20704;-44
2022/11/24 10:19:21;;;;;;;0.90;0.50;;;12.60;87.90;;;;;;5116973;28;20875;-43
2022/11/24 10:22:11;;;;;;;2.20;0.63;;;12.90;86.70;;;;;;5075382;28;20577;-42
2022/11/24 10:25:10;;;;;;;1.20;0.53;;;13.10;85.90;;;;;;5115205;28;20839;-45
2022/11/24 10:27:58;;;;;;;0.83;0.30;;;13.10;85.00;;;;;;5116225;28;20489;-44
2022/11/24 10:30:25;;;;;;;0.80;0.40;;;13.10;84.60;;;;;;5099292;28;20695;-43
2022/11/24 10:33:01;;;;;;;1.57;0.83;;;13.40;85.00;;;;;;5119231;28;20409;-44
2022/11/24 10:35:41;;;;;;;1.40;0.47;;;13.90;83.90;;;;;;5117814;28;20799;-46
2022/11/24 10:38:30;;;;;;;1.30;0.73;;;14.30;82.60;;;;;;5098169;28;20527;-42
2022/11/24 10:41:00;;;;;;;0.97;0.57;;;14.70;81.50;;;;;;5083442;28;20470;-42
2022/11/24 10:43:27;;;;;;;1.77;0.60;;;15.40;80.40;;;;;;5097726;28;20419;-46
2022/11/24 10:45:54;;;;;;;1.40;0.67;;;16.40;79.20;;;;;;5098070;28;20822;-47
2022/11/24 10:48:24;;;;;;;1.67;0.70;;;17.70;76.10;;;;;;5078406;28;20435;-45
2022/11/24 10:50:53;;;;;;;1.50;0.50;;;18.60;71.90;;;;;;5078847;28;20414;-43
2022/11/24 10:53:31;;;;;;;1.53;0.80;;;19.40;65.90;;;;;;5094507;28;20421;-44
2022/11/24 10:55:58;;;;;;;2.40;0.80;;;19.40;61.60;;;;;;5096042;28;20698;-44
2022/11/24 10:58:42;;;;;;;1.80;0.60;;;19.00;60.30;;;;;;5097033;28;20413;-42
2022/11/24 11:01:13;;;;;;;1.73;0.73;;;18.30;59.80;;;;;;5076775;28;20469;-42
2022/11/24 11:03:45;;;;;;;2.60;0.70;;;17.90;60.90;;;;;;5095527;28;20488;-43
2022/11/24 11:06:13;;;;;;;1.57;0.80;;;18.70;62.10;;;;;;5092300;28;20667;-43
2022/11/24 11:08:39;;;;;;;1.40;0.70;;;20.80;61.70;;;;;;5091802;28;20830;-45
2022/11/24 11:11:18;;;;;;;2.40;0.77;;;23.40;58.70;;;;;;5092637;28;20730;-42
2022/11/24 11:14:04;;;;;;;1.53;0.87;;;26.00;54.80;;;;;;5095513;28;20469;-43
2022/11/24 11:16:41;;;;;;;1.37;0.80;;;28.50;47.70;;;;;;5095553;28;20419;-42
2022/11/24 11:19:31;;;;;;;1.60;0.60;;;30.40;43.40;;;;;;5096707;28;20535;-42
2022/11/24 11:22:11;;;;;;;1.50;0.80;;;32.10;39.70;;;;;;5097010;28;20741;-45
2022/11/24 11:24:38;;;;;;;1.53;0.90;;;32.70;36.50;;;;;;5095275;28;20493;-40
2022/11/24 11:27:17;;;;;;;1.53;0.77;;;31.50;35.50;;;;;;5075012;28;20506;-46
2022/11/24 11:29:43;;;;;;;2.27;0.93;;;29.80;36.70;;;;;;5092395;28;20467;-43
2022/11/24 11:32:21;;;;;;;3.10;1.20;;;28.10;38.20;;;;;;5094809;28;20390;-48
2022/11/24 11:34:48;;;;;;;2.60;1.00;;;26.80;40.00;;;;;;5094417;28;20179;-41
2022/11/24 11:37:15;;;;;;;3.17;0.90;;;25.60;41.60;;;;;;5093725;28;20429;-44
2022/11/24 11:39:43;;;;;;;1.17;0.57;;;24.50;43.30;;;;;;5076341;28;20399;-43
2022/11/24 11:42:14;;;;;;;4.37;0.90;;;23.70;44.90;;;;;;5076054;28;20815;-41
2022/11/24 11:44:45;;;;;;;3.83;1.47;;;23.00;46.30;;;;;;5094310;28;20700;-40
2022/11/24 11:47:23;;;;;;;4.20;0.90;;;22.50;47.20;;;;;;5093530;28;20840;-42
2022/11/24 11:49:49;;;;;;;5.53;1.40;;;22.20;47.60;;;;;;5093596;28;20429;-44
2022/11/24 11:52:39;;;;;;;3.20;1.07;;;21.90;47.20;;;;;;5094857;28;20688;-46
2022/11/24 11:55:23;;;;;;;2.10;0.93;;;21.60;47.70;;;;;;5095772;28;20191;-46
2022/11/24 11:58:26;;;;;;;2.73;1.10;;;21.70;48.10;;;;;;5098876;28;20441;-42
2022/11/24 12:01:17;;;;;;;3.63;1.30;;;21.60;48.50;;;;;;5115093;28;20563;-41
2022/11/24 12:03:43;;;;;;;3.30;0.90;;;21.50;48.40;;;;;;5111399;28;20432;-43
2022/11/24 12:06:37;;;;;;;2.50;1.00;;;22.10;48.10;;;;;;5117253;28;20428;-43
2022/11/24 12:09:19;;;;;;;2.30;1.13;;;24.20;46.40;;;;;;5116514;28;20164;-41
2022/11/24 12:12:10;;;;;;;2.57;1.20;;;26.20;42.20;;;;;;5098672;28;20418;-42
2022/11/24 12:14:57;;;;;;;1.70;1.27;;;28.10;39.10;;;;;;5114558;28;20421;-44
2022/11/24 12:18:03;;;;;;;5.33;1.77;;;28.10;37.20;;;;;;5114427;28;20457;-42
2022/11/24 12:20:38;;;;;;;3.63;1.67;;;26.90;38.00;;;;;;5057602;28;20417;-41
2022/11/24 12:23:26;;;;;;;2.87;1.77;;;25.30;38.90;;;;;;5111543;28;20420;-41
2022/11/24 12:26:00;;;;;;;3.40;1.40;;;23.80;39.30;;;;;;5093978;28;20662;-43
2022/11/24 12:28:46;;;;;;;3.10;1.43;;;22.30;39.20;;;;;;5092511;28;20474;-42
2022/11/24 12:31:23;;;;;;;3.47;1.80;;;21.10;39.60;;;;;;5091531;28;20461;-42
2022/11/24 12:34:20;;;;;;;1.60;1.00;;;20.20;40.50;;;;;;5098744;28;20823;-42
2022/11/24 12:37:07;;;;;;;3.40;1.70;;;19.60;41.30;;;;;;5076338;28;20430;-42
2022/11/24 12:39:51;;;;;;;5.40;1.27;;;19.00;41.80;;;;;;5072732;28;20402;-42
2022/11/24 12:42:34;;;;;;;5.73;1.40;;;18.70;42.40;;;;;;5094751;28;20474;-43
2022/11/24 12:45:16;;;;;;;4.47;1.50;;;18.50;42.70;;;;;;5092982;28;20511;-42
2022/11/24 12:48:02;;;;;;;3.77;1.43;;;18.20;42.90;;;;;;5075007;28;20674;-42
2022/11/24 12:50:30;;;;;;;4.37;1.40;;;17.80;43.50;;;;;;5059713;28;20832;-44
2022/11/24 12:53:21;;;;;;;5.07;1.60;;;17.60;43.60;;;;;;5091586;28;20412;-43
2022/11/24 12:55:47;;;;;;;2.97;1.40;;;18.60;45.20;;;;;;5091375;28;20415;-42
2022/11/24 12:58:24;;;;;;;3.20;1.33;;;20.80;44.70;;;;;;5089245;28;20415;-40
2022/11/24 13:00:58;;;;;;;4.00;1.40;;;23.40;42.40;;;;;;5075140;28;20458;-41
2022/11/24 13:03:58;;;;;;;2.60;1.10;;;25.70;38.30;;;;;;5092888;28;20899;-43
2022/11/24 13:06:45;;;;;;;3.30;1.63;;;28.00;35.80;;;;;;5065246;28;20490;-41
2022/11/24 13:09:11;;;;;;;4.40;1.53;;;29.50;33.40;;;;;;5072269;28;20415;-45
2022/11/24 13:11:42;;;;;;;2.70;1.57;;;30.60;31.20;;;;;;5092431;28;20424;-43